North Bay, Canada
Current Conditions -  °F | °C
As of 4:00 AM on Saturday 20 Dec 2014 (Local Time) from CYSB Reporting Station
Clear Clear  
Wind Chill: -7°   Ceiling: Unl
Heat Index:   Visibility: 15mi
Dew Point:   Wind: 9mph
Humidity: 85%   Direction: 50°NE
Pressure: 30.24"   Gusts: NA
Location:  46.31°N, 79.46°W
Report Text: CYSB 200900Z 05008KT 15SM SKC M14/M16 A3024 RMK SLP270
Loading
Personal Weather Stations






























Interactive Weather Map New forecast layout! Learn more

10-Day Weather Forecast

Advertisements
Track Severe Weather on mobile